Time;durP1;ratioP1;P1;durP2;ratioP2;P2;SDS_P1;SDS_P2;PMS_P1;PMS_P2;Temp;Humidity;BMP_temperature;BMP_pressure;BME280_temperature;BME280_humidity;BME280_pressure;Samples;Min_cycle;Max_cycle;Signal;HPM_P1;HPM_P2
2021/12/09 00:01:21;;;;;;;16.67;5.78;;;;;;;2.72;87.68;100090.34;5055260;28;20816;-66
2021/12/09 00:03:47;;;;;;;12.87;6.13;;;;;;;2.61;88.59;100102.56;5055457;28;20480;-66
2021/12/09 00:06:12;;;;;;;18.67;6.10;;;;;;;2.56;88.96;100095.38;5037493;28;20299;-66
2021/12/09 00:08:38;;;;;;;12.90;6.25;;;;;;;2.55;88.97;100098.88;5055269;28;20384;-66
2021/12/09 00:11:05;;;;;;;12.30;6.22;;;;;;;2.64;88.66;100095.41;5055293;28;20121;-66
2021/12/09 00:13:31;;;;;;;12.30;5.90;;;;;;;2.59;88.64;100096.81;5055577;28;20055;-67
2021/12/09 00:15:57;;;;;;;15.45;6.20;;;;;;;2.45;89.02;100098.19;5037612;28;20492;-66
2021/12/09 00:18:23;;;;;;;14.63;6.38;;;;;;;2.58;88.97;100101.09;5055679;28;20098;-66
2021/12/09 00:20:49;;;;;;;15.05;6.25;;;;;;;2.51;88.96;100107.78;5055078;28;20048;-66
2021/12/09 00:23:15;;;;;;;12.88;6.22;;;;;;;2.51;89.07;100112.09;5055449;28;20032;-66
2021/12/09 00:25:40;;;;;;;15.63;6.13;;;;;;;2.48;89.29;100110.63;5046787;28;20025;-66
2021/12/09 00:28:06;;;;;;;14.27;5.65;;;;;;;2.55;88.96;100109.06;5067220;28;20083;-69
2021/12/09 00:30:32;;;;;;;14.90;6.60;;;;;;;2.57;88.40;100109.72;5049565;28;20020;-68
2021/12/09 00:32:59;;;;;;;22.05;7.32;;;;;;;2.46;89.09;100102.31;5066894;28;20109;-68
2021/12/09 00:35:31;;;;;;;12.32;6.40;;;;;;;2.40;89.48;100113.94;5069758;28;20076;-67
2021/12/09 00:38:01;;;;;;;15.13;6.30;;;;;;;2.38;89.21;100099.72;5050458;28;20079;-67
2021/12/09 00:40:27;;;;;;;13.63;6.82;;;;;;;2.38;89.23;100113.25;5067880;28;20032;-69
2021/12/09 00:42:52;;;;;;;21.33;6.50;;;;;;;2.42;88.88;100108.69;5046934;28;20029;-69
2021/12/09 00:45:18;;;;;;;17.63;6.82;;;;;;;2.36;89.61;100110.09;5058869;28;20017;-67
2021/12/09 00:47:44;;;;;;;13.30;6.45;;;;;;;2.34;89.49;100119.63;5055986;28;20466;-67
2021/12/09 00:50:10;;;;;;;18.98;6.90;;;;;;;2.32;89.63;100118.97;5055337;28;20025;-69
2021/12/09 00:52:36;;;;;;;21.27;6.85;;;;;;;2.35;89.77;100120.41;5037693;28;20025;-67
2021/12/09 00:55:02;;;;;;;15.63;7.05;;;;;;;2.29;89.81;100123.56;5054865;28;20036;-67
2021/12/09 00:57:28;;;;;;;12.68;6.75;;;;;;;2.22;89.99;100128.47;5054728;28;20082;-68
2021/12/09 00:59:53;;;;;;;14.60;6.78;;;;;;;2.25;89.72;100123.88;5036817;28;20021;-67
2021/12/09 01:02:19;;;;;;;14.02;6.85;;;;;;;2.17;90.14;100128.13;5054852;28;20074;-67
2021/12/09 01:04:46;;;;;;;13.60;6.90;;;;;;;2.17;90.12;100126.34;5054781;28;20017;-67
2021/12/09 01:07:12;;;;;;;14.85;6.90;;;;;;;2.16;90.30;100129.88;5036447;28;20423;-67
2021/12/09 01:09:38;;;;;;;13.02;6.78;;;;;;;2.15;90.25;100117.25;5054333;28;20035;-67
2021/12/09 01:12:05;;;;;;;14.23;6.45;;;;;;;2.09;89.95;100122.94;5035776;28;20040;-67
2021/12/09 01:14:30;;;;;;;17.45;7.40;;;;;;;2.18;90.21;100129.69;5054024;28;20125;-66
2021/12/09 01:16:55;;;;;;;13.77;7.05;;;;;;;2.16;90.42;100122.22;5036029;28;20060;-66
2021/12/09 01:19:21;;;;;;;13.07;7.20;;;;;;;2.22;89.99;100131.03;5035855;28;20056;-66
2021/12/09 01:21:46;;;;;;;14.65;7.05;;;;;;;2.09;90.12;100130.59;5053750;28;20025;-67
2021/12/09 01:24:11;;;;;;;13.55;6.78;;;;;;;2.09;90.10;100131.38;5035876;28;20024;-67
2021/12/09 01:26:37;;;;;;;17.45;7.13;;;;;;;2.03;90.32;100135.31;5053600;28;20419;-65
2021/12/09 01:29:12;;;;;;;16.55;7.00;;;;;;;2.13;90.19;100135.25;5053555;28;20064;-66
2021/12/09 01:31:39;;;;;;;16.10;7.22;;;;;;;2.08;90.53;100136.66;5035870;28;20025;-66
2021/12/09 01:34:04;;;;;;;14.13;7.45;;;;;;;2.09;90.21;100130.59;5053449;28;20064;-66
2021/12/09 01:36:32;;;;;;;19.98;6.97;;;;;;;2.03;90.54;100134.53;5053499;28;20059;-66
2021/12/09 01:38:59;;;;;;;20.58;6.63;;;;;;;2.23;89.69;100125.75;5053369;28;20021;-66
2021/12/09 01:41:25;;;;;;;14.35;6.38;;;;;;;2.21;89.49;100134.50;5035479;28;20039;-67
2021/12/09 01:43:50;;;;;;;19.00;6.93;;;;;;;2.17;90.05;100131.47;5035482;28;20115;-67
2021/12/09 01:46:20;;;;;;;15.90;6.45;;;;;;;2.26;89.41;100128.00;5053120;28;20021;-67
2021/12/09 01:48:47;;;;;;;14.57;6.55;;;;;;;2.25;89.29;100123.88;5053617;28;20456;-67
2021/12/09 01:51:13;;;;;;;17.30;6.95;;;;;;;2.29;89.60;100128.66;5053080;28;20020;-66
2021/12/09 01:53:39;;;;;;;13.75;6.07;;;;;;;2.31;89.65;100124.22;5052819;28;20103;-67
2021/12/09 01:56:09;;;;;;;16.50;6.40;;;;;;;2.31;89.48;100126.78;5053105;28;20500;-66
2021/12/09 01:58:34;;;;;;;13.32;6.32;;;;;;;2.37;89.37;100124.44;5053737;28;20025;-66
2021/12/09 02:01:00;;;;;;;12.77;6.38;;;;;;;2.33;89.38;100124.88;5053018;28;20051;-66
2021/12/09 02:03:26;;;;;;;13.95;6.20;;;;;;;2.25;89.44;100120.53;5052951;28;20027;-66
2021/12/09 02:05:53;;;;;;;16.15;6.45;;;;;;;2.37;88.96;100118.53;5052992;28;20029;-66
2021/12/09 02:08:19;;;;;;;16.83;6.25;;;;;;;2.25;89.79;100112.88;5052931;28;20104;-66
2021/12/09 02:10:46;;;;;;;15.52;6.38;;;;;;;2.26;89.88;100122.91;5053050;28;20078;-66
2021/12/09 02:13:13;;;;;;;17.65;7.03;;;;;;;2.22;89.94;100123.38;5052969;28;20025;-66
2021/12/09 02:15:40;;;;;;;19.13;6.38;;;;;;;2.13;90.37;100116.59;5052884;28;20090;-66
2021/12/09 02:18:08;;;;;;;15.18;6.90;;;;;;;2.19;89.89;100116.81;5052945;28;20033;-66
2021/12/09 02:20:35;;;;;;;12.43;6.22;;;;;;;2.18;89.90;100117.75;5034906;28;20053;-66
2021/12/09 02:23:06;;;;;;;13.60;6.65;;;;;;;2.16;89.80;100113.78;5052919;28;20021;-67
2021/12/09 02:25:32;;;;;;;17.15;6.38;;;;;;;2.23;89.98;100120.66;5037992;28;20039;-66
2021/12/09 02:27:58;;;;;;;15.10;6.05;;;;;;;2.22;89.78;100111.41;5056985;28;20029;-66
2021/12/09 02:30:23;;;;;;;16.20;5.95;;;;;;;2.28;89.33;100116.88;5057012;28;20460;-66
2021/12/09 02:32:48;;;;;;;14.15;6.40;;;;;;;2.14;89.68;100108.00;5056854;28;20095;-66
2021/12/09 02:35:13;;;;;;;13.55;6.15;;;;;;;2.08;90.55;100124.69;5056651;28;20033;-66
2021/12/09 02:37:39;;;;;;;15.25;5.80;;;;;;;2.13;90.57;100122.53;5056812;28;20063;-66
2021/12/09 02:40:06;;;;;;;16.63;5.93;;;;;;;2.08;90.35;100117.06;5056794;28;20555;-66
2021/12/09 02:42:32;;;;;;;13.93;5.97;;;;;;;2.12;90.27;100122.66;5056631;28;20482;-66
2021/12/09 02:44:58;;;;;;;16.27;6.10;;;;;;;2.12;90.67;100127.75;5056622;28;20025;-65
2021/12/09 02:47:24;;;;;;;13.52;6.03;;;;;;;2.00;90.07;100099.16;5038691;28;20025;-65
2021/12/09 02:49:49;;;;;;;19.92;6.28;;;;;;;2.09;90.41;100125.50;5056460;28;20020;-66
2021/12/09 02:52:14;;;;;;;14.02;6.18;;;;;;;2.07;90.36;100133.28;5038536;28;20024;-65
2021/12/09 02:54:40;;;;;;;12.30;6.60;;;;;;;2.07;90.24;100128.19;5038329;28;20106;-66
2021/12/09 02:57:07;;;;;;;16.50;6.20;;;;;;;2.10;90.14;100134.72;5056440;28;20025;-65
2021/12/09 02:59:32;;;;;;;17.00;6.80;;;;;;;2.12;90.12;100143.84;5056339;28;20036;-65
2021/12/09 03:02:00;;;;;;;16.55;6.05;;;;;;;2.08;90.25;100140.00;5056364;28;20025;-66
2021/12/09 03:04:40;;;;;;;12.30;5.60;;;;;;;1.97;90.43;100138.47;5056243;28;20452;-66
2021/12/09 03:07:16;;;;;;;15.25;5.63;;;;;;;2.03;90.61;100137.09;5038212;28;20029;-66
2021/12/09 03:09:49;;;;;;;13.88;5.93;;;;;;;2.00;90.84;100139.91;5038593;28;20120;-65
2021/12/09 03:12:21;;;;;;;13.50;6.15;;;;;;;2.00;90.19;100139.91;5056073;28;20031;-66
2021/12/09 03:14:47;;;;;;;15.50;5.70;;;;;;;1.89;90.89;100135.84;5056022;28;20103;-67
2021/12/09 03:17:13;;;;;;;11.48;5.30;;;;;;;1.89;90.95;100137.59;5037896;28;20056;-66
2021/12/09 03:19:38;;;;;;;16.55;5.93;;;;;;;1.95;90.45;100139.56;5055802;28;20044;-67
2021/12/09 03:22:04;;;;;;;17.90;6.10;;;;;;;1.86;91.04;100140.44;5055875;28;20021;-67
2021/12/09 03:24:29;;;;;;;16.73;5.65;;;;;;;1.94;90.66;100138.75;5055808;28;20032;-67
2021/12/09 03:26:57;;;;;;;13.27;5.93;;;;;;;1.89;91.05;100137.59;5055840;28;20021;-67
2021/12/09 03:29:25;;;;;;;16.48;5.40;;;;;;;1.92;90.65;100139.84;5055692;28;20063;-67
2021/12/09 03:31:53;;;;;;;16.23;6.20;;;;;;;1.92;91.06;100143.19;5055736;28;20490;-67
2021/12/09 03:34:20;;;;;;;9.10;5.00;;;;;;;2.00;90.47;100150.91;5055616;28;20379;-67
2021/12/09 03:36:47;;;;;;;16.35;5.32;;;;;;;2.02;90.34;100143.13;5055170;28;20028;-66
2021/12/09 03:39:17;;;;;;;13.48;5.40;;;;;;;2.02;90.45;100143.13;5055563;28;20036;-67
2021/12/09 03:41:44;;;;;;;10.43;4.95;;;;;;;1.95;90.74;100142.91;5037554;28;20464;-67
2021/12/09 03:44:10;;;;;;;16.42;5.78;;;;;;;1.84;90.48;100127.81;5055539;28;20053;-66
2021/12/09 03:46:35;;;;;;;16.48;6.20;;;;;;;1.94;90.46;100146.41;5055469;28;20029;-67
2021/12/09 03:49:02;;;;;;;19.60;5.82;;;;;;;1.88;90.61;100144.44;5055356;28;20033;-66
2021/12/09 03:51:27;;;;;;;15.35;5.65;;;;;;;1.92;90.67;100142.41;5055247;28;20553;-67
2021/12/09 03:53:53;;;;;;;12.75;5.13;;;;;;;1.82;90.84;100149.34;5037246;28;20029;-66
2021/12/09 03:56:19;;;;;;;11.15;5.22;;;;;;;1.94;90.29;100150.72;5055260;28;20028;-67
2021/12/09 03:58:44;;;;;;;14.05;5.40;;;;;;;2.01;90.24;100149.97;5037247;28;20453;-68
2021/12/09 04:01:09;;;;;;;11.50;4.90;;;;;;;1.98;90.46;100154.56;5055163;28;20037;-67
2021/12/09 04:03:35;;;;;;;11.02;5.10;;;;;;;1.96;90.36;100154.72;5054993;28;20024;-67
2021/12/09 04:06:00;;;;;;;16.15;5.15;;;;;;;1.84;90.92;100157.59;5055099;28;20025;-66
2021/12/09 04:08:25;;;;;;;12.73;5.60;;;;;;;1.84;90.66;100152.50;5055051;28;20078;-67
2021/12/09 04:10:51;;;;;;;11.52;5.07;;;;;;;1.74;91.00;100150.03;5054920;28;20032;-65
2021/12/09 04:13:18;;;;;;;12.65;4.97;;;;;;;1.79;90.52;100153.75;5037097;28;20017;-66
2021/12/09 04:15:43;;;;;;;16.23;5.07;;;;;;;1.84;90.74;100160.16;5036995;28;20530;-66
2021/12/09 04:18:09;;;;;;;14.15;4.80;;;;;;;1.76;90.96;100166.00;5054954;28;20025;-65
2021/12/09 04:20:35;;;;;;;13.15;5.72;;;;;;;1.80;90.80;100152.00;5036685;28;20583;-66
2021/12/09 04:23:00;;;;;;;9.45;4.93;;;;;;;1.85;90.60;100164.31;5054767;28;20040;-66
2021/12/09 04:25:27;;;;;;;13.85;5.30;;;;;;;1.84;90.41;100162.69;5054729;28;20772;-65
2021/12/09 04:27:55;;;;;;;20.52;5.57;;;;;;;1.74;90.83;100168.69;5036751;28;20471;-67
2021/12/09 04:30:22;;;;;;;15.02;5.72;;;;;;;1.76;91.28;100166.00;5054642;28;20045;-66
2021/12/09 04:32:49;;;;;;;15.15;5.28;;;;;;;1.71;90.99;100158.78;5054621;28;20029;-67
2021/12/09 04:35:15;;;;;;;16.35;5.55;;;;;;;1.63;91.21;100161.25;5054465;28;20054;-67
2021/12/09 04:37:40;;;;;;;17.80;5.05;;;;;;;1.70;91.39;100164.81;5054606;28;20024;-66
2021/12/09 04:40:08;;;;;;;10.27;5.03;;;;;;;1.64;90.98;100162.84;5036595;28;20056;-65
2021/12/09 04:42:34;;;;;;;15.05;4.80;;;;;;;1.64;91.12;100170.50;5054298;28;20032;-66
2021/12/09 04:44:59;;;;;;;11.68;5.53;;;;;;;1.61;91.47;100169.97;5054384;28;20103;-66
2021/12/09 04:47:24;;;;;;;17.63;5.63;;;;;;;1.58;91.32;100176.13;5053414;28;20056;-66
2021/12/09 04:49:50;;;;;;;12.60;5.00;;;;;;;1.69;90.95;100167.50;5036349;28;20041;-66
2021/12/09 04:52:15;;;;;;;16.95;4.57;;;;;;;1.69;90.56;100167.50;5054208;28;20031;-67
2021/12/09 04:54:41;;;;;;;13.63;4.85;;;;;;;1.69;90.50;100162.41;5036126;28;20110;-66
2021/12/09 04:57:08;;;;;;;15.00;5.28;;;;;;;1.66;91.21;100171.13;5054043;28;20106;-66
2021/12/09 04:59:33;;;;;;;14.57;5.15;;;;;;;1.78;90.88;100180.19;5036262;28;20021;-66
2021/12/09 05:01:59;;;;;;;15.02;4.22;;;;;;;1.75;90.67;100165.16;5054040;28;20027;-66
2021/12/09 05:04:24;;;;;;;16.17;5.43;;;;;;;1.78;90.17;100162.38;5053907;28;20021;-66
2021/12/09 05:06:49;;;;;;;10.77;4.43;;;;;;;1.81;90.35;100166.34;5036142;28;20071;-66
2021/12/09 05:09:18;;;;;;;14.77;4.53;;;;;;;1.80;90.21;100165.53;5053790;28;20039;-66
2021/12/09 05:11:48;;;;;;;16.98;4.70;;;;;;;1.95;90.04;100173.47;5053760;28;20021;-67
2021/12/09 05:14:21;;;;;;;19.55;4.90;;;;;;;1.87;90.00;100173.44;5035797;28;20025;-66
2021/12/09 05:16:50;;;;;;;19.58;4.65;;;;;;;1.89;90.04;100168.16;5053737;28;20025;-66
2021/12/09 05:19:15;;;;;;;10.00;4.45;;;;;;;1.87;90.08;100172.59;5035478;28;20037;-66
2021/12/09 05:21:41;;;;;;;16.17;4.63;;;;;;;1.93;89.65;100177.16;5053659;28;20029;-66
2021/12/09 05:24:09;;;;;;;16.08;4.18;;;;;;;1.91;89.74;100176.47;5053589;28;20109;-67
2021/12/09 05:26:43;;;;;;;14.77;4.75;;;;;;;1.90;89.75;100180.78;5053665;28;20468;-66
2021/12/09 05:29:08;;;;;;;17.05;4.20;;;;;;;1.99;89.50;100181.66;5035724;28;20017;-67
2021/12/09 05:34:19;;;;;;;16.80;4.60;;;;;;;2.07;89.37;100186.00;5053501;28;20036;-68
2021/12/09 05:36:45;;;;;;;16.60;4.35;;;;;;;2.07;89.02;100184.25;5035571;28;20028;-67
2021/12/09 05:39:12;;;;;;;16.08;4.47;;;;;;;2.00;89.05;100185.78;5053442;28;20468;-67
2021/12/09 05:41:39;;;;;;;20.88;5.00;;;;;;;1.92;89.39;100168.69;5053308;28;20032;-67
2021/12/09 05:44:09;;;;;;;9.75;4.10;;;;;;;2.11;89.02;100202.63;5053383;28;20025;-68
2021/12/09 05:46:37;;;;;;;18.42;4.22;;;;;;;2.12;89.16;100197.38;5053507;28;20032;-68
2021/12/09 05:49:03;;;;;;;12.52;4.10;;;;;;;2.01;89.13;100189.94;5053176;28;20025;-67
2021/12/09 05:51:28;;;;;;;14.00;4.50;;;;;;;1.98;89.28;100193.56;5053132;28;20067;-68
2021/12/09 05:53:55;;;;;;;18.25;4.28;;;;;;;2.00;89.58;100186.59;5053024;28;20041;-68
2021/12/09 05:56:21;;;;;;;11.48;4.40;;;;;;;2.12;89.10;100187.16;5035333;28;20166;-67
2021/12/09 05:58:46;;;;;;;16.05;4.50;;;;;;;2.12;89.12;100189.72;5052883;28;20082;-67
2021/12/09 06:01:13;;;;;;;13.95;4.30;;;;;;;2.07;88.88;100191.09;5053113;28;20028;-67
2021/12/09 06:03:38;;;;;;;11.68;3.83;;;;;;;2.01;89.03;100182.28;5035371;28;20477;-67
2021/12/09 06:06:03;;;;;;;12.48;4.20;;;;;;;1.99;89.54;100177.34;5035498;28;20036;-67
2021/12/09 06:08:29;;;;;;;13.23;4.32;;;;;;;1.99;89.59;100181.66;5053064;28;20057;-68
2021/12/09 06:10:54;;;;;;;14.50;4.50;;;;;;;2.00;89.41;100170.50;5035193;28;20024;-67
2021/12/09 06:13:19;;;;;;;12.10;4.57;;;;;;;1.94;89.55;100171.09;5052903;28;20372;-67
2021/12/09 06:15:45;;;;;;;15.07;4.80;;;;;;;2.10;88.97;100171.25;5052916;28;20498;-67
2021/12/09 06:18:11;;;;;;;15.23;4.07;;;;;;;2.01;89.23;100174.66;5052889;28;20029;-67
2021/12/09 06:20:36;;;;;;;12.35;4.50;;;;;;;1.98;89.36;100173.19;5053039;28;20057;-67
2021/12/09 06:23:02;;;;;;;13.07;4.30;;;;;;;2.00;89.30;100173.84;5035159;28;20036;-66
2021/12/09 06:25:27;;;;;;;11.82;4.13;;;;;;;1.99;89.37;100174.00;5034887;28;20371;-67
2021/12/09 06:27:54;;;;;;;22.15;4.53;;;;;;;2.00;89.93;100178.16;5052964;28;20391;-67
2021/12/09 06:30:21;;;;;;;14.65;4.32;;;;;;;2.01;89.66;100187.38;5035003;28;20017;-67
2021/12/09 06:32:46;;;;;;;13.95;4.63;;;;;;;2.10;89.08;100195.91;5052892;28;20471;-67
2021/12/09 06:35:13;;;;;;;10.85;3.95;;;;;;;2.01;89.25;100188.22;5052676;28;20028;-67
2021/12/09 06:37:40;;;;;;;13.82;4.53;;;;;;;1.97;89.20;100191.19;5034757;28;20024;-68
2021/12/09 06:40:09;;;;;;;14.32;4.30;;;;;;;2.02;89.54;100189.00;5034888;28;20025;-67
2021/12/09 06:42:34;;;;;;;11.43;4.05;;;;;;;2.09;89.43;100197.66;5052676;28;20028;-67
2021/12/09 06:45:00;;;;;;;12.00;3.78;;;;;;;2.04;89.71;100192.19;5034853;28;20094;-67
2021/12/09 06:47:25;;;;;;;19.48;4.18;;;;;;;1.88;88.82;100180.13;5052664;28;20113;-68
2021/12/09 06:49:50;;;;;;;8.93;3.97;;;;;;;2.15;89.05;100203.94;5034760;28;20025;-68
2021/12/09 06:52:16;;;;;;;10.98;3.65;;;;;;;2.10;89.08;100209.47;5052591;28;20421;-67
2021/12/09 06:54:42;;;;;;;11.15;3.55;;;;;;;2.03;89.33;100204.13;5052396;28;20116;-68
2021/12/09 06:57:07;;;;;;;11.77;5.05;;;;;;;2.07;89.55;100209.75;5052514;28;20472;-68
2021/12/09 06:59:32;;;;;;;13.05;4.03;;;;;;;2.05;89.35;100196.38;5052454;28;20036;-67
2021/12/09 07:01:57;;;;;;;18.20;4.70;;;;;;;2.09;89.07;100197.66;5052543;28;20044;-66
2021/12/09 07:04:23;;;;;;;13.05;3.85;;;;;;;2.19;88.96;100203.50;5052457;28;20492;-68
2021/12/09 07:06:48;;;;;;;13.45;4.35;;;;;;;2.18;88.99;100201.88;5052417;28;20050;-67
2021/12/09 07:09:14;;;;;;;11.27;3.92;;;;;;;2.26;88.36;100201.94;5034514;28;20031;-67
2021/12/09 07:11:44;;;;;;;16.35;4.88;;;;;;;2.18;88.22;100204.44;5037491;28;20017;-68
2021/12/09 07:14:09;;;;;;;19.17;4.80;;;;;;;2.15;89.21;100209.03;5038105;28;20028;-66
2021/12/09 07:16:34;;;;;;;11.75;3.95;;;;;;;2.11;89.51;100210.28;5038393;28;20033;-68
2021/12/09 07:19:00;;;;;;;13.93;3.97;;;;;;;2.18;89.14;100213.81;5055725;28;20582;-68
2021/12/09 07:21:25;;;;;;;12.00;4.38;;;;;;;2.15;89.40;100222.56;5055785;28;20379;-67
2021/12/09 07:23:50;;;;;;;12.75;4.30;;;;;;;2.21;89.11;100223.72;5037828;28;20076;-68
2021/12/09 07:26:16;;;;;;;23.08;4.70;;;;;;;2.25;88.96;100228.41;5055851;28;20025;-69
2021/12/09 07:28:41;;;;;;;14.38;4.50;;;;;;;2.23;88.98;100232.03;5037938;28;20047;-69
2021/12/09 07:31:06;;;;;;;19.17;4.88;;;;;;;2.17;89.33;100237.72;5055686;28;20028;-67
2021/12/09 07:33:32;;;;;;;13.65;4.50;;;;;;;2.30;88.92;100245.00;5037835;28;20067;-68
2021/12/09 07:35:58;;;;;;;17.42;4.80;;;;;;;2.25;88.82;100238.59;5055827;28;20049;-68
2021/12/09 07:38:23;;;;;;;17.13;5.38;;;;;;;2.42;88.63;100238.75;5037749;28;20060;-68
2021/12/09 07:40:49;;;;;;;15.02;4.65;;;;;;;2.28;88.65;100229.88;5056022;28;20028;-71
2021/12/09 07:43:14;;;;;;;16.52;4.82;;;;;;;2.25;89.13;100232.72;5037722;28;20031;-69
2021/12/09 07:45:39;;;;;;;20.05;5.40;;;;;;;2.18;89.36;100224.03;5037552;28;20067;-68
2021/12/09 07:48:05;;;;;;;19.20;5.40;;;;;;;2.27;88.61;100241.00;5055139;28;20064;-67
2021/12/09 07:50:31;;;;;;;17.00;4.50;;;;;;;2.15;88.78;100207.28;5055407;28;20075;-67
2021/12/09 07:52:58;;;;;;;13.43;4.40;;;;;;;2.25;89.07;100242.91;5037223;28;20075;-68
2021/12/09 07:55:24;;;;;;;15.15;5.13;;;;;;;2.27;88.71;100228.25;5037129;28;20049;-68
2021/12/09 07:57:50;;;;;;;12.35;4.38;;;;;;;2.43;88.22;100243.69;5037194;28;20021;-67
2021/12/09 08:00:28;;;;;;;15.15;4.70;;;;;;;2.32;88.45;100235.47;5055519;28;20090;-67
2021/12/09 08:02:54;;;;;;;15.45;4.75;;;;;;;2.31;88.44;100246.63;5054988;28;20083;-68
2021/12/09 08:05:20;;;;;;;16.10;4.80;;;;;;;2.41;88.17;100242.22;5037073;28;20017;-67
2021/12/09 08:07:45;;;;;;;12.75;4.95;;;;;;;2.32;88.17;100246.47;5036976;28;20025;-66
2021/12/09 08:10:15;;;;;;;15.38;4.63;;;;;;;2.40;88.23;100245.75;5036889;28;20035;-67
2021/12/09 08:12:40;;;;;;;13.45;4.60;;;;;;;2.27;88.15;100243.53;5054876;28;20025;-68
2021/12/09 08:15:09;;;;;;;21.73;5.70;;;;;;;2.49;88.08;100252.50;5054926;28;20025;-68
2021/12/09 08:20:05;;;;;;;11.85;4.68;;;;;;;2.71;87.10;100252.03;5054625;28;20139;-67
2021/12/09 08:22:34;;;;;;;18.98;5.30;;;;;;;2.63;87.17;100254.53;5053323;28;20029;-68
2021/12/09 08:25:00;;;;;;;14.43;4.95;;;;;;;2.81;86.88;100262.16;5054872;28;20025;-70
2021/12/09 08:27:26;;;;;;;15.00;4.55;;;;;;;2.62;87.25;100267.44;5036675;28;20135;-68
2021/12/09 08:29:52;;;;;;;16.02;4.90;;;;;;;2.76;87.08;100266.09;5054544;28;20025;-68
2021/12/09 08:32:17;;;;;;;12.18;4.53;;;;;;;2.72;87.49;100268.94;5054507;28;20036;-67
2021/12/09 08:34:43;;;;;;;13.40;5.13;;;;;;;2.67;87.50;100266.03;5054475;28;20375;-67
2021/12/09 08:37:08;;;;;;;17.88;4.57;;;;;;;2.90;86.87;100268.91;5054451;28;20033;-67
2021/12/09 08:39:34;;;;;;;16.60;4.65;;;;;;;2.71;87.21;100264.00;5054479;28;20025;-67
2021/12/09 08:41:59;;;;;;;17.02;4.25;;;;;;;2.77;86.96;100275.38;5054331;28;20090;-68
2021/12/09 08:44:24;;;;;;;12.10;5.22;;;;;;;2.74;87.88;100270.56;5054379;28;20107;-68
2021/12/09 08:46:50;;;;;;;13.77;5.50;;;;;;;2.94;87.31;100274.53;5036394;28;20115;-67
2021/12/09 08:49:15;;;;;;;10.50;4.75;;;;;;;2.82;87.56;100281.63;5054207;28;20033;-67
2021/12/09 08:51:41;;;;;;;61.45;29.70;;;;;;;2.89;86.83;100253.75;5054118;28;20051;-67
2021/12/09 08:54:06;;;;;;;12.32;4.90;;;;;;;3.10;86.58;100266.97;5054059;28;20109;-67
2021/12/09 08:56:34;;;;;;;17.13;5.88;;;;;;;3.27;86.30;100267.84;5054287;28;20060;-68
2021/12/09 08:58:59;;;;;;;14.30;5.80;;;;;;;3.20;86.12;100281.41;5053932;28;20078;-68
2021/12/09 09:04:46;;;;;;;17.13;5.60;;;;;;;3.21;86.47;100283.00;5054432;28;20384;-67
2021/12/09 09:07:11;;;;;;;12.35;5.18;;;;;;;3.12;87.23;100271.94;5053947;28;20025;-67
2021/12/09 09:09:38;;;;;;;12.18;5.13;;;;;;;3.32;86.68;100277.63;5035903;28;20025;-67
2021/12/09 09:12:09;;;;;;;14.27;5.70;;;;;;;3.26;87.17;100273.94;5053916;28;20468;-67
2021/12/09 09:14:35;;;;;;;15.95;6.07;;;;;;;3.07;87.39;100281.78;5035826;28;20110;-68
2021/12/09 09:17:01;;;;;;;18.13;5.70;;;;;;;3.09;87.02;100273.03;5053813;28;20472;-66
2021/12/09 09:19:26;;;;;;;12.02;5.60;;;;;;;3.10;87.44;100269.50;5035779;28;20094;-67
2021/12/09 09:21:52;;;;;;;15.80;6.07;;;;;;;3.14;87.31;100273.38;5053767;28;20498;-68
2021/12/09 09:24:17;;;;;;;16.45;6.40;;;;;;;3.19;87.59;100274.66;5053676;28;20025;-67
2021/12/09 09:26:43;;;;;;;15.82;6.60;;;;;;;3.30;86.85;100269.31;5035831;28;20017;-67
2021/12/09 09:29:08;;;;;;;14.77;6.75;;;;;;;3.64;86.03;100266.75;5053661;28;20028;-67
2021/12/09 09:31:34;;;;;;;18.05;6.30;;;;;;;4.03;84.15;100266.25;5053514;28;20028;-68
2021/12/09 09:34:02;;;;;;;17.58;5.97;;;;;;;4.30;83.79;100272.84;5034951;28;20023;-67
2021/12/09 09:36:29;;;;;;;16.83;5.82;;;;;;;4.29;82.12;100268.69;5053633;28;20021;-68
2021/12/09 09:39:06;;;;;;;18.20;6.03;;;;;;;4.23;83.11;100266.72;5035659;28;20024;-67
2021/12/09 09:41:33;;;;;;;16.27;6.45;;;;;;;4.19;83.15;100271.38;5035666;28;20197;-68
2021/12/09 09:44:11;;;;;;;22.85;6.85;;;;;;;4.05;84.19;100272.78;5053344;28;20047;-68
2021/12/09 09:46:36;;;;;;;14.82;6.97;;;;;;;4.16;84.90;100273.44;5053621;28;20025;-67
2021/12/09 09:49:05;;;;;;;14.45;7.20;;;;;;;4.16;84.67;100266.56;5053188;28;20532;-65
2021/12/09 09:51:30;;;;;;;18.42;7.22;;;;;;;4.13;85.39;100266.09;5035300;28;20028;-67
2021/12/09 09:53:56;;;;;;;20.38;7.50;;;;;;;4.25;84.41;100259.72;5053055;28;20075;-68
2021/12/09 09:56:24;;;;;;;21.42;8.13;;;;;;;4.30;84.76;100265.16;5053128;28;20063;-67
2021/12/09 09:58:58;;;;;;;20.13;7.85;;;;;;;4.14;85.36;100276.16;5053120;28;20028;-68
2021/12/09 10:01:25;;;;;;;20.70;8.32;;;;;;;4.17;86.27;100278.41;5035432;28;20383;-68
2021/12/09 10:03:58;;;;;;;18.90;8.40;;;;;;;4.04;86.07;100263.50;5036275;28;20033;-67
2021/12/09 10:06:24;;;;;;;28.38;9.60;;;;;;;4.21;86.10;100269.47;5052941;28;20086;-70
2021/12/09 10:08:50;;;;;;;24.27;9.23;;;;;;;3.87;86.64;100261.06;5035173;28;20499;-67
2021/12/09 10:11:16;;;;;;;30.50;9.95;;;;;;;4.12;86.84;100283.19;5052936;28;20380;-67
2021/12/09 10:13:44;;;;;;;27.73;10.38;;;;;;;4.36;85.07;100276.50;5035052;28;20041;-67
2021/12/09 10:16:22;;;;;;;16.95;7.97;;;;;;;4.18;86.61;100280.00;5052910;28;20025;-68
2021/12/09 10:18:50;;;;;;;26.48;9.95;;;;;;;4.68;85.11;100283.41;5034659;28;20396;-67
2021/12/09 10:21:25;;;;;;;25.85;10.45;;;;;;;4.68;84.58;100286.75;5035766;28;20029;-68
2021/12/09 10:24:00;;;;;;;22.40;10.13;;;;;;;4.44;85.90;100269.66;5034881;28;20078;-66
2021/12/09 10:26:29;;;;;;;21.20;9.55;;;;;;;4.46;85.08;100289.94;5034932;28;20060;-67
2021/12/09 10:29:05;;;;;;;28.25;10.35;;;;;;;4.69;84.59;100285.81;5034940;28;20078;-66
2021/12/09 10:31:35;;;;;;;23.70;10.68;;;;;;;4.92;84.14;100275.72;5053238;28;20116;-68
2021/12/09 10:34:41;;;;;;;29.02;10.73;;;;;;;4.84;83.40;100278.28;5034966;28;20506;-66
2021/12/09 10:37:23;;;;;;;25.17;9.98;;;;;;;5.04;83.77;100277.94;5052720;28;20036;-68
2021/12/09 10:39:58;;;;;;;20.05;10.13;;;;;;;5.03;82.99;100272.00;5034801;28;20025;-67
2021/12/09 10:43:07;;;;;;;22.05;10.85;;;;;;;5.19;82.83;100256.59;5034801;28;20073;-67
2021/12/09 10:45:36;;;;;;;24.73;10.45;;;;;;;5.55;82.59;100270.72;5054053;28;20134;-68
2021/12/09 10:48:18;;;;;;;21.00;10.00;;;;;;;5.53;81.72;100268.34;5038625;28;20029;-68
2021/12/09 10:55:58;;;;;;;28.40;11.48;;;;;;;6.15;80.59;100264.22;5056493;28;20039;-66
2021/12/09 10:58:45;;;;;;;22.00;10.00;;;;;;;5.71;80.67;100250.16;5038394;28;20029;-67
2021/12/09 11:01:19;;;;;;;20.77;10.32;;;;;;;5.40;81.86;100260.38;5056321;28;20475;-68
2021/12/09 11:03:54;;;;;;;26.23;10.90;;;;;;;5.13;82.43;100259.03;5038407;28;20032;-67
2021/12/09 11:06:37;;;;;;;24.50;10.50;;;;;;;5.18;82.76;100254.22;5056246;28;20039;-66
2021/12/09 11:09:06;;;;;;;22.45;10.63;;;;;;;5.15;83.78;100249.41;5056275;28;20024;-67
2021/12/09 11:11:39;;;;;;;24.80;11.23;;;;;;;5.04;83.64;100237.75;5038195;28;20021;-66
2021/12/09 11:14:10;;;;;;;25.50;11.57;;;;;;;4.84;84.71;100252.69;5056925;28;20468;-66
2021/12/09 11:16:39;;;;;;;19.85;10.65;;;;;;;5.04;84.61;100252.34;5055994;28;20021;-66
2021/12/09 11:19:14;;;;;;;29.05;11.85;;;;;;;5.04;83.94;100230.06;5055898;28;20041;-66
2021/12/09 11:21:45;;;;;;;27.85;11.77;;;;;;;5.27;83.26;100250.66;5038714;28;20093;-69
2021/12/09 11:24:14;;;;;;;29.83;12.00;;;;;;;5.06;84.14;100235.03;5055863;28;20104;-68
2021/12/09 11:26:46;;;;;;;23.52;12.10;;;;;;;5.11;84.38;100240.44;5038076;28;20491;-68
2021/12/09 11:29:18;;;;;;;26.88;12.30;;;;;;;5.32;83.21;100232.22;5037880;28;20092;-67
2021/12/09 11:32:01;;;;;;;23.00;11.98;;;;;;;5.15;84.57;100221.22;5055650;28;20052;-67
2021/12/09 11:34:33;;;;;;;23.63;11.68;;;;;;;5.19;84.10;100225.06;5055598;28;20021;-67
2021/12/09 11:37:07;;;;;;;24.35;11.60;;;;;;;5.33;83.86;100226.16;5037622;28;20115;-68
2021/12/09 11:43:00;;;;;;;21.83;12.07;;;;;;;5.37;84.26;100227.41;5055849;28;20387;-66